Terminal Aerodrome Forecast
Issued by NWS Twin Cities, MN

Home | Current Version | Previous Version | Text Only | Print | Product List | Glossary Off
Versions: 1 2 3 4 5 6 7 8 9 10 11 12 13

000
FTUS43 KMPX 240827 AAA
TAFSTC
TAF AMD
KSTC 240827Z 2408/2506 35003KT P6SM SKC
     FM241300 01012KT P6SM BKN090
     FM242000 35011KT P6SM SKC
     FM250100 35005KT P6SM SKC=

USA.gov is the U.S. government's official web portal to all federal, state and local government web resources and services.